Time;durP1;ratioP1;P1;durP2;ratioP2;P2;SDS_P1;SDS_P2;PMS_P1;PMS_P2;Temp;Humidity;BMP_temperature;BMP_pressure;BME280_temperature;BME280_humidity;BME280_pressure;Samples;Min_cycle;Max_cycle;Signal;HPM_P1;HPM_P2
2022/12/16 00:00:18;;;;;;;28.90;10.77;;;-5.30;99.90;;;-6.27;100.00;96621.00;4975539;28;20583;-73
2022/12/16 00:02:44;;;;;;;20.88;9.93;;;-5.20;99.90;;;-6.18;100.00;96620.22;4977633;28;20535;-73
2022/12/16 00:05:11;;;;;;;25.27;11.18;;;-5.20;99.90;;;-6.20;100.00;96616.84;4977736;28;20086;-73
2022/12/16 00:07:38;;;;;;;30.45;11.82;;;-5.20;99.90;;;-6.12;100.00;96621.09;4981461;28;20054;-73
2022/12/16 00:10:07;;;;;;;26.30;11.57;;;-5.10;99.90;;;-6.13;100.00;96621.97;4980432;28;20046;-74
2022/12/16 00:12:34;;;;;;;24.75;9.52;;;-5.10;99.90;;;-6.08;100.00;96618.63;4978109;28;20057;-73
2022/12/16 00:15:01;;;;;;;22.85;9.10;;;-5.00;99.90;;;-6.03;100.00;96619.50;4984043;28;20042;-73
2022/12/16 00:17:28;;;;;;;19.85;8.30;;;-5.00;99.90;;;-6.02;100.00;96616.13;4984380;28;20050;-73
2022/12/16 00:19:55;;;;;;;23.05;9.55;;;-5.00;99.90;;;-6.01;100.00;96620.34;4984153;28;20050;-73
2022/12/16 00:22:22;;;;;;;24.55;10.75;;;-5.00;99.90;;;-6.03;100.00;96617.81;4985773;28;20374;-72
2022/12/16 00:24:49;;;;;;;23.52;9.75;;;-5.00;99.90;;;-6.01;100.00;96630.47;4984162;28;20068;-72
2022/12/16 00:27:16;;;;;;;22.95;9.85;;;-5.00;99.90;;;-6.07;100.00;96632.94;4984040;28;20168;-72
2022/12/16 00:29:43;;;;;;;20.13;8.45;;;-5.00;99.90;;;-6.06;100.00;96625.38;4987130;28;20060;-72
2022/12/16 00:32:10;;;;;;;21.55;8.50;;;-5.00;99.90;;;-6.05;100.00;96619.47;4980251;28;20081;-72
2022/12/16 00:34:37;;;;;;;20.88;8.73;;;-5.00;99.90;;;-5.95;100.00;96630.50;4982965;28;20050;-72
2022/12/16 00:37:03;;;;;;;17.45;7.63;;;-4.90;99.90;;;-5.95;100.00;96620.41;4984251;28;20050;-72
2022/12/16 00:39:30;;;;;;;23.65;9.77;;;-4.90;99.90;;;-5.94;100.00;96612.78;4982254;28;20138;-72
2022/12/16 00:41:57;;;;;;;22.38;8.93;;;-4.90;99.90;;;-5.93;100.00;96611.97;4981823;28;20076;-72
2022/12/16 00:44:24;;;;;;;21.20;8.80;;;-4.90;99.90;;;-5.97;100.00;96622.06;4984159;28;20368;-72
2022/12/16 00:46:51;;;;;;;19.30;8.32;;;-4.90;99.90;;;-5.95;100.00;96610.31;4982400;28;20493;-72
2022/12/16 00:49:20;;;;;;;21.25;8.57;;;-4.90;99.90;;;-5.97;100.00;96625.44;4983468;28;20046;-72
2022/12/16 00:51:47;;;;;;;22.63;8.60;;;-4.90;99.90;;;-6.03;100.00;96627.91;4981419;28;20065;-72
2022/12/16 00:54:14;;;;;;;21.13;9.63;;;-5.00;99.90;;;-6.04;100.00;96626.25;5000316;28;20049;-72
2022/12/16 00:56:41;;;;;;;19.92;8.25;;;-5.00;99.90;;;-6.14;100.00;96620.25;4983605;28;20054;-73
2022/12/16 00:59:08;;;;;;;17.65;7.85;;;-5.00;99.90;;;-6.12;100.00;96627.84;4984154;28;20223;-72
2022/12/16 01:01:35;;;;;;;15.70;7.45;;;-5.10;99.90;;;-6.08;100.00;96628.72;4982569;28;20065;-72
2022/12/16 01:04:02;;;;;;;20.15;8.65;;;-5.00;99.90;;;-6.08;100.00;96626.22;4980846;28;20141;-72
2022/12/16 01:06:29;;;;;;;22.08;8.40;;;-5.00;99.90;;;-6.14;100.00;96632.88;4985363;28;20050;-72
2022/12/16 01:08:56;;;;;;;18.17;7.57;;;-5.00;99.90;;;-6.22;100.00;96633.69;4983122;28;20055;-73
2022/12/16 01:11:23;;;;;;;18.42;7.40;;;-5.10;99.90;;;-6.16;100.00;96629.53;5011991;28;20046;-72
2022/12/16 01:13:51;;;;;;;20.23;7.80;;;-5.10;99.90;;;-6.11;100.00;96632.91;4983787;28;20247;-72
2022/12/16 01:16:21;;;;;;;26.65;9.35;;;-5.10;99.90;;;-6.13;100.00;96634.59;4985674;28;20133;-72
2022/12/16 01:18:48;;;;;;;20.80;9.05;;;-5.10;99.90;;;-6.20;100.00;96627.81;4980648;28;20125;-73
2022/12/16 01:21:15;;;;;;;18.75;7.95;;;-5.10;99.90;;;-6.22;100.00;96629.47;4984408;28;20053;-72
2022/12/16 01:23:42;;;;;;;17.65;7.57;;;-5.10;99.90;;;-6.28;100.00;96631.09;4986043;28;20062;-72
2022/12/16 01:26:15;;;;;;;18.40;7.85;;;-5.20;99.90;;;-6.39;100.00;96644.47;4982823;28;20077;-73
2022/12/16 01:28:43;;;;;;;20.60;8.85;;;-5.20;99.90;;;-6.45;100.00;96641.03;4977618;28;20050;-73
2022/12/16 01:31:11;;;;;;;21.98;8.70;;;-5.30;99.90;;;-6.45;100.00;96644.44;4976902;28;20057;-72
2022/12/16 01:33:38;;;;;;;19.40;8.90;;;-5.40;99.90;;;-6.45;100.00;96638.50;4980807;28;20079;-72
2022/12/16 01:36:07;;;;;;;20.77;10.00;;;-5.40;99.90;;;-6.45;100.00;96636.84;4985052;28;20039;-73
2022/12/16 01:38:35;;;;;;;18.20;7.75;;;-5.40;99.90;;;-6.46;100.00;96641.88;4984432;28;20050;-73
2022/12/16 01:41:03;;;;;;;22.15;8.75;;;-5.40;99.90;;;-6.53;100.00;96640.97;4982725;28;20050;-73
2022/12/16 01:43:36;;;;;;;22.55;8.90;;;-5.40;99.90;;;-6.54;100.00;96655.28;4980864;28;20137;-73
2022/12/16 01:46:12;;;;;;;23.08;9.27;;;-5.40;99.90;;;-6.53;100.00;96658.66;4979678;28;20374;-72
2022/12/16 01:49:02;;;;;;;20.35;8.02;;;-5.50;99.90;;;-6.52;100.00;96657.84;4983683;28;20516;-72
2022/12/16 01:51:42;;;;;;;18.92;8.18;;;-5.50;99.90;;;-6.61;100.00;96663.63;4980883;28;20049;-73
2022/12/16 01:54:30;;;;;;;21.42;8.75;;;-5.50;99.90;;;-6.66;100.00;96656.84;4983497;28;20101;-72
2022/12/16 01:57:01;;;;;;;22.23;8.68;;;-5.60;99.90;;;-6.66;100.00;96657.69;4977862;28;20057;-73
2022/12/16 01:59:31;;;;;;;20.95;7.72;;;-5.60;99.90;;;-6.80;100.00;96656.69;4984809;28;20050;-72
2022/12/16 02:01:59;;;;;;;20.35;7.60;;;-5.70;99.90;;;-6.83;100.00;96669.28;4982999;28;20050;-73
2022/12/16 02:04:26;;;;;;;21.50;8.48;;;-5.80;99.90;;;-6.81;100.00;96671.00;4980687;28;20050;-73
2022/12/16 02:06:54;;;;;;;20.23;8.75;;;-5.80;99.90;;;-6.80;100.00;96665.09;4982945;28;20058;-73
2022/12/16 02:09:21;;;;;;;21.08;8.73;;;-5.80;99.90;;;-6.83;100.00;96665.09;4982192;28;20049;-72
2022/12/16 02:11:51;;;;;;;20.10;8.27;;;-5.80;99.90;;;-6.92;100.00;96672.56;4980436;28;20130;-72
2022/12/16 02:15:02;;;;;;;23.75;8.60;;;-5.80;99.90;;;-6.99;100.00;96673.31;4982614;28;20537;-73
2022/12/16 02:18:12;;;;;;;22.67;9.07;;;-5.90;99.90;;;-6.96;100.00;96670.81;4997014;28;20064;-73
2022/12/16 02:21:03;;;;;;;20.73;7.95;;;-5.90;99.90;;;-6.99;100.00;96681.72;4980001;28;20146;-72
2022/12/16 02:24:01;;;;;;;20.63;8.43;;;-5.90;99.90;;;-7.04;100.00;96670.75;4979263;28;20046;-72
2022/12/16 02:26:56;;;;;;;20.48;7.35;;;-6.00;99.90;;;-7.10;100.00;96669.81;4984380;28;20090;-72
2022/12/16 02:30:18;;;;;;;19.80;7.63;;;-6.00;99.90;;;-7.08;100.00;96669.00;5011605;28;20050;-73
2022/12/16 02:33:13;;;;;;;20.77;8.13;;;-6.00;99.90;;;-7.14;100.00;96666.41;4978058;28;20145;-73
2022/12/16 02:36:01;;;;;;;24.30;9.20;;;-6.00;99.90;;;-7.11;100.00;96663.09;4982554;28;20042;-72
2022/12/16 02:39:01;;;;;;;17.40;6.95;;;-6.10;99.90;;;-7.09;100.00;96662.28;4995074;28;20046;-73
2022/12/16 02:41:52;;;;;;;17.33;6.93;;;-6.00;99.90;;;-7.02;100.00;96665.72;4981529;28;20046;-73
2022/12/16 02:44:32;;;;;;;17.45;6.97;;;-6.00;99.90;;;-6.94;100.00;96664.13;4983468;28;20050;-73
2022/12/16 02:46:59;;;;;;;18.25;6.53;;;-5.90;99.90;;;-6.98;100.00;96668.31;5009518;28;20046;-73
2022/12/16 02:49:26;;;;;;;20.98;7.22;;;-5.90;99.90;;;-6.92;100.00;96667.50;4982006;28;20054;-72
2022/12/16 02:51:55;;;;;;;19.40;7.22;;;-5.90;99.90;;;-6.96;100.00;96663.25;4981074;28;20072;-73
2022/12/16 02:54:22;;;;;;;13.45;6.43;;;-5.90;99.90;;;-7.00;100.00;96669.97;4979910;28;21030;-72
2022/12/16 02:57:22;;;;;;;15.00;6.15;;;-6.00;99.90;;;-7.17;100.00;96669.75;4979942;28;20504;-72
2022/12/16 03:00:20;;;;;;;18.88;7.38;;;-6.00;99.90;;;-7.23;100.00;96671.34;4966398;28;20591;-73
2022/12/16 03:03:13;;;;;;;18.52;6.47;;;-6.10;99.90;;;-7.30;100.00;96667.06;4981884;28;20060;-72
2022/12/16 03:05:47;;;;;;;15.27;5.70;;;-6.20;99.90;;;-7.27;100.00;96665.44;4980618;28;20392;-72
2022/12/16 03:08:25;;;;;;;19.02;6.88;;;-6.20;99.90;;;-7.18;100.00;96667.22;4979417;28;20083;-72
2022/12/16 03:10:59;;;;;;;14.30;5.38;;;-6.20;99.90;;;-7.19;100.00;96670.56;4978732;28;20057;-72
2022/12/16 03:13:30;;;;;;;16.40;6.05;;;-6.20;99.90;;;-7.09;100.00;96663.94;4979510;28;20046;-72
2022/12/16 03:16:02;;;;;;;15.40;6.27;;;-6.10;99.90;;;-7.26;100.00;96667.09;4979747;28;20050;-72
2022/12/16 03:18:30;;;;;;;16.67;6.80;;;-6.20;99.90;;;-7.32;100.00;96669.56;4966797;28;20061;-73
2022/12/16 03:21:03;;;;;;;16.33;7.25;;;-6.20;99.90;;;-7.43;100.00;96677.00;4983050;28;20054;-73
2022/12/16 03:23:48;;;;;;;14.73;5.18;;;-6.30;99.90;;;-7.35;100.00;96672.03;4982059;28;20058;-72
2022/12/16 03:26:22;;;;;;;13.35;5.47;;;-6.30;99.90;;;-7.25;100.00;96673.00;5015629;28;20054;-72
2022/12/16 03:29:14;;;;;;;15.73;5.43;;;-6.30;99.90;;;-7.15;100.00;96677.34;4997559;28;20157;-73
2022/12/16 03:31:49;;;;;;;13.60;5.82;;;-6.20;99.90;;;-6.95;100.00;96672.53;4983810;28;20126;-72
2022/12/16 03:34:37;;;;;;;11.70;4.82;;;-6.10;99.90;;;-6.93;100.00;96680.97;5012205;28;20061;-71
2022/12/16 03:37:08;;;;;;;17.20;6.05;;;-6.00;99.90;;;-6.98;100.00;96691.00;4998408;28;20054;-72
2022/12/16 03:39:51;;;;;;;13.60;4.93;;;-6.00;99.90;;;-6.79;100.00;96688.69;4980100;28;20472;-72
2022/12/16 03:42:18;;;;;;;12.15;4.93;;;-5.90;99.90;;;-6.88;100.00;96679.34;4983312;28;20054;-72
2022/12/16 03:44:45;;;;;;;13.90;4.90;;;-5.90;99.90;;;-6.89;100.00;96679.31;4983254;28;20065;-72
2022/12/16 03:47:13;;;;;;;11.90;4.55;;;-5.90;99.90;;;-6.85;100.00;96678.50;4976501;28;20527;-72
2022/12/16 03:49:49;;;;;;;14.00;4.90;;;-5.90;99.90;;;-7.03;100.00;96686.72;4985528;28;20407;-73
2022/12/16 03:52:16;;;;;;;12.35;5.18;;;-6.00;99.90;;;-7.03;100.00;96686.72;4984484;28;20054;-72
2022/12/16 03:54:42;;;;;;;13.32;4.60;;;-6.10;99.90;;;-7.23;100.00;96691.50;4984193;28;20069;-72
2022/12/16 03:57:09;;;;;;;15.10;5.28;;;-6.10;99.90;;;-7.32;100.00;96694.78;4984787;28;20074;-72
2022/12/16 03:59:41;;;;;;;12.32;4.85;;;-6.30;99.90;;;-7.33;100.00;96699.81;4996613;28;20061;-72
2022/12/16 04:02:08;;;;;;;12.38;5.18;;;-6.40;99.90;;;-7.41;100.00;96708.09;4984590;28;20054;-73
2022/12/16 04:04:35;;;;;;;13.05;4.75;;;-6.50;99.90;;;-7.48;100.00;96706.34;4981367;28;20050;-72
2022/12/16 04:07:24;;;;;;;12.50;4.25;;;-6.50;99.90;;;-7.55;100.00;96708.72;5014912;28;20146;-72
2022/12/16 04:09:51;;;;;;;13.73;5.43;;;-6.60;99.90;;;-7.58;100.00;96715.41;4983424;28;20070;-73
2022/12/16 04:26:09;;;;;;;14.77;5.47;;;-6.60;99.90;;;-7.23;100.00;96736.91;5010919;28;20054;-72
2022/12/16 04:28:36;;;;;;;19.30;5.18;;;-6.40;99.90;;;-7.15;100.00;96733.66;4987323;28;20042;-72
2022/12/16 04:31:03;;;;;;;12.15;4.55;;;-6.30;99.90;;;-7.14;100.00;96737.00;4986409;28;20050;-73
